Edward White

Olheiro - Newcastle United
4 Abr 2027
Domingo
Processo

Personalidade

Adaptabilidade (20) Ambição (6) Controvérsia (6) Lealdade (11) Pressão (4) Profissionalismo (1) Espírito Esportivo (12) Temperamento (18)

Perfil

Estilo de Treinamento Democrático
Licença Continental C
Determinação 9
Gestão de Pessoas 16
Motivação 12
Disciplina 13
Satisfação no Trabalho
93%
Fadiga
0%
Função Olheiro
Salário 41.2K p/s
Contrato 14.03.2029

Desempenho

Comportamento Bom
Eficácia do Treinamento
54%
Desenvolvimento do Jogador
30%
Prevenção de Lesões
65%
Implementação Tática
45%

Eventos Recentes

Avaliou um jogador agora
Avaliou um jogador agora
Participou de uma reunião de recrutamento agora
Participou de uma reunião de recrutamento agora
Avaliou um jogador agora
Avaliou um jogador agora
Avaliou um jogador 7d atrás
Avaliou um jogador 7d atrás

Monitorando agora

130
Jogador Clube Status Habilidade Confiança Observado Última observação Último voto
Matheus Gonçalves Al-Ahli Ativo 122 / 113 40% 4 02.04.2027 -
Camilo Rey Domenech Boca Juniors Ativo 110 / 115 40% 10 02.04.2027 -
Leny Yoro Manchester United Ativo 148 / 153 40% 6 02.04.2027 -
Riyad Idrissi Cagliari Ativo 118 / 133 40% 7 02.04.2027 -
Jobe Bellingham RB Leipzig Ativo 131 / 141 40% 5 02.04.2027 -
Gonçalo Sousa Porto Ativo 119 / 120 40% 2 02.04.2027 -
James Trafford Leeds United Ativo 149 / 137 40% 6 01.04.2027 -
Oliver Dovin Coventry City Ativo 130 / 134 40% 12 01.04.2027 -
Edoardo Motta Lazio Ativo 127 / 137 40% 15 01.04.2027 -
Alex Tóth Bournemouth Ativo 118 / 117 40% 3 30.03.2027 -
Saïmon Bouabré Al-Hilal Ativo 116 / 116 40% 6 29.03.2027 -
Mohamadou Kanté West Ham United Ativo 108 / 131 40% 2 29.03.2027 -
Lukáš Horníček Tottenham Ativo 142 / 145 40% 11 29.03.2027 -
Pedro Zenit Ativo 123 / 129 40% 3 29.03.2027 -
Lorenzo Palmisani Frosinone Ativo 129 / 123 40% 3 28.03.2027 -
Valentin Atangana Juventus Ativo 131 / 126 40% 8 25.03.2027 -
Juan Pablo De la Reta Maipú Ativo 108 / 114 40% 2 25.03.2027 -
Chris Rigg Sunderland Rejeitado 131 / 148 40% 1 25.03.2027 Mais informações
Alysson Edward Aston Villa Ativo 125 / 137 40% 4 23.03.2027 -
Sander Tangvik Hamburger SV Ativo 131 / 119 40% 11 23.03.2027 -
Pierce Charles Manchester City Ativo 120 / 126 40% 9 23.03.2027 -
Robin Roefs Sunderland Ativo 139 / 145 40% 18 22.03.2027 -
Nikolaus Wurmbrand Brighton Ativo 125 / 120 40% 3 20.03.2027 -
Suleman Sani RB Leipzig Ativo 129 / 130 40% 3 20.03.2027 -
Jaydee Canvot Crystal Palace Ativo 137 / 127 40% 3 18.03.2027 -
Axel Tape Bayer Leverkusen Ativo 128 / 128 40% 8 17.03.2027 -
Josh King Liverpool Ativo 136 / 141 40% 6 17.03.2027 -
Vanja Dragojević Partizan Ativo 116 / 108 40% 2 17.03.2027 -
Francisco Chissumba Braga Ativo 123 / 117 40% 5 14.03.2027 -
Sindre Walle Egeli Tottenham Ativo 128 / 124 40% 1 13.03.2027 -
Antonín Kinský Tottenham Ativo 145 / 134 40% 20 06.03.2027 -
Bart Verbruggen Brighton Ativo 149 / 149 40% 14 28.02.2027 -
Cemran Dansin Orlando Pirates Ativo 102 / 107 40% 5 26.02.2027 -
Mathys Tel Tottenham Ativo 136 / 150 40% 6 25.02.2027 -
Antoni Milambo Brentford Ativo 142 / 143 40% 4 23.02.2027 -
Bahmed Deuff Olympique de Marseille Ativo 107 / 116 40% 2 19.02.2027 -
Edvin Austbø Viking Ativo 128 / 133 40% 3 07.02.2027 -
Eliesse Ben Seghir Bayer Leverkusen Ativo 130 / 148 40% 1 07.02.2027 -
Thiago Silvero River Plate Ativo 115 / 127 40% 1 05.02.2027 -
Ezechiel Banzuzi RB Leipzig Ativo 124 / 126 40% 1 01.02.2027 -
Jair Nottingham Forest Ativo 134 / 133 40% 1 01.02.2027 -
Mamour N'Diaye Sarpsborg 08 Ativo 115 / 115 40% 2 19.01.2027 -
Jaden Philogene Ipswich Town Perdido 135 / 134 72% 1 01.01.2027 -
Simphiwe Selepe Orlando Pirates Ativo 101 / 107 40% 1 01.01.2027 -
George Hirst Stoke City Perdido 139 / 122 40% 3 30.12.2026 Observar
Gonzalo Plata Dinamo Moscow Perdido 136 / 128 40% 2 30.12.2026 -
Santiago Mina VfL Wolfsburg Ativo 138 / 154 40% 1 28.12.2026 -
Tamerlan Musaev CSKA Moscow Ativo 127 / 130 40% 1 28.12.2026 -
Yoan Bonny Inter Ativo 151 / 136 40% 1 28.12.2026 -
Camillo Tavernelli Arezzo Ativo 112 / 107 40% 1 26.12.2026 -
Lorenzo Colombo Genoa Ativo 140 / 128 40% 1 26.12.2026 -
Sibusiso Tshabalala Polokwane City Ativo 79 / 74 40% 1 26.12.2026 -
Josh Coburn Millwall Ativo 117 / 109 40% 2 25.12.2026 -
Rumarn Burrell Queens Park Rangers Ativo 128 / 135 40% 2 25.12.2026 -
Lazar Jovanović VfB Stuttgart Ativo 107 / 127 40% 2 25.12.2026 -
Mateo Fernández Angusht Ativo 74 / 90 40% 1 25.12.2026 -
Senne Lammens Manchester United Rejeitado 153 / 146 40% 18 23.12.2026 Rejeitar
Donnell McNeilly Nottingham Forest Ativo 116 / 106 40% 1 22.12.2026 -
Rayan Bournemouth Rejeitado 141 / 149 40% 3 21.12.2026 Rejeitar
Santiago Sosa Yung Defensa y Justicia Ativo 122 / 126 40% 2 21.12.2026 -
Eddie Nketiah Crystal Palace Ativo 142 / 129 40% 4 14.12.2026 -
Aune Heggebø West Bromwich Albion Ativo 127 / 140 40% 1 14.12.2026 -
Tidiam Gomis RB Leipzig Ativo 125 / 123 40% 1 14.12.2026 -
Ignacio Russo Tigre Ativo 123 / 121 40% 2 10.12.2026 -
Emanuel Emegha Chelsea Ativo 132 / 151 40% 2 10.12.2026 -
Yegor Golenkov Rostov Ativo 116 / 114 40% 1 10.12.2026 -
Kevin Kelsy Portland Timbers Ativo 109 / 119 40% 2 09.12.2026 -
Ollie Scarles West Ham United Ativo 134 / 145 40% 3 06.12.2026 -
Đorđe Petrović Bournemouth Ativo 143 / 147 40% 1 05.12.2026 -
Mateo Retegui Al-Qadisiyah Perdido 164 / 141 40% 2 03.12.2026 -
Ottó Hindrich Legia Ativo 109 / 136 40% 6 01.12.2026 -
Elis Bishesari IFK Goteborg Ativo 108 / 117 40% 5 01.12.2026 -
Chemsdine Talbi Sunderland Ativo 146 / 129 40% 5 30.11.2026 -
Arkaitz Mariezkurrena Real Sociedad Ativo 112 / 125 40% 1 30.11.2026 -
Yorbe Vertessen Red Bull Salzburg Ativo 123 / 119 40% 1 28.11.2026 -
Bobby Clark Derby County Ativo 116 / 129 40% 2 26.11.2026 -
Christopher Bonsu Baah Al-Qadisiyah Ativo 124 / 124 40% 2 25.11.2026 -
Wilson Isidor Sunderland Ativo 128 / 140 40% 2 23.11.2026 -
Luciano Gondou CSKA Moscow Ativo 123 / 112 40% 2 23.11.2026 -
Jean-Luc Morin Tours Ativo 147 / 132 40% 1 23.11.2026 -
Tomás Chancalay Minnesota United FC Ativo 130 / 113 40% 3 20.11.2026 -
Jeong Sang-Bin St. Louis CITY SC Ativo 121 / 128 40% 2 20.11.2026 -
Samu Aghehowa Arsenal Ativo 152 / 165 40% 1 19.11.2026 -
Heorhii Yermakov Metalist Ativo 107 / 127 40% 1 17.11.2026 -
Caoimhin Kelleher Brentford Ativo 147 / 151 40% 2 11.11.2026 -
Noah Sadiki Sunderland Ativo 137 / 145 40% 3 11.11.2026 -
Victor Olatunji Real Salt Lake Ativo 118 / 112 40% 1 11.11.2026 -
Armando Broja Burnley Ativo 138 / 148 40% 1 11.11.2026 -
Dmytro Riznyk Shakhtar Ativo 136 / 123 40% 1 11.11.2026 -
Zeki Amdouni Burnley Ativo 129 / 138 40% 2 08.11.2026 -
Brayan León Mamelodi Sundowns Ativo 115 / 130 40% 3 08.11.2026 -
Gustavo Sá Nottingham Forest Ativo 129 / 145 40% 2 04.11.2026 -
Arda Güler Real Madrid Ativo 144 / 162 40% 2 04.11.2026 -
Tom Cannon Sheffield United Ativo 122 / 117 40% 1 02.11.2026 -
Luis Vázquez Birmingham Ativo 133 / 129 40% 1 02.11.2026 -
Marvin Keller Young Boys Ativo 141 / 127 40% 6 29.10.2026 -
Luís Guilherme Sporting CP Ativo 130 / 135 40% 1 29.10.2026 -
Dylan Gorosito Boca Juniors Ativo 114 / 123 40% 1 29.10.2026 -
Pascal Loretz Luzern Ativo 118 / 119 40% 6 27.10.2026 -
Kostantis Tzolakis Hull City Ativo 131 / 150 40% 6 24.10.2026 -
Simon Becher St. Louis CITY SC Ativo 108 / 101 40% 1 24.10.2026 -
Liam Delap Nottingham Forest Ativo 139 / 147 40% 1 24.10.2026 -
El Hadji Malick Diouf Brentford Ativo 140 / 139 40% 3 19.10.2026 -
Franco Fagúndez Estudiantes Ativo 121 / 105 40% 1 19.10.2026 -
Radek Vítek Middlesbrough Ativo 135 / 146 40% 6 17.10.2026 -
Sergey Pinyaev Lokomotiv Moscow Ativo 131 / 112 40% 4 14.10.2026 -
Indiana Vassilev Philadelphia Union Ativo 125 / 123 40% 2 12.10.2026 -
Michy Fellaini KV Oostende Ativo 131 / 126 40% 2 10.10.2026 -
Tadeo Allende Inter Miami CF Ativo 128 / 119 40% 2 10.10.2026 -
Matthieu Epolo Standard Liege Ativo 117 / 114 40% 6 08.10.2026 -
Andreas Jungdal Westerlo Ativo 112 / 108 40% 4 29.09.2026 -
Ruslan Neshcheret Dynamo Kyiv Ativo 109 / 112 40% 2 29.09.2026 -
Álex Jiménez Bournemouth Ativo 149 / 152 40% 4 24.09.2026 -
Brandon Vázquez Austin FC Ativo 123 / 130 40% 2 23.09.2026 -
Ignacio Perruzzi San Lorenzo Ativo 115 / 121 40% 1 23.09.2026 -
Florián Monzón Atlas Ativo 125 / 125 40% 1 23.09.2026 -
Matheus Cunha Manchester United Ativo 158 / 159 40% 1 23.09.2026 -
Nacer Tielemans Mouscron Ativo 125 / 147 40% 3 18.09.2026 -
Mohamed-Ali Cho Hull City Ativo 138 / 129 40% 1 18.09.2026 -
Georginio Rutter Brighton Ativo 142 / 138 40% 1 16.09.2026 -
Cesar Corona Veracruz Ativo 130 / 145 40% 1 16.09.2026 -
Relebohile Mofokeng Orlando Pirates Ativo 115 / 109 40% 3 13.09.2026 -
Eliás Montiel Pachuca Ativo 125 / 123 40% 1 07.09.2026 -
Axel Alderweireld KV Oostende Ativo 138 / 134 40% 1 07.09.2026 -
Robert FC Copenhagen Ativo 126 / 126 40% 1 31.08.2026 -
Mateus Mané Manchester United Ativo 127 / 140 40% 1 29.08.2026 -
Rafael Luís Benfica Ativo 124 / 116 40% 1 27.08.2026 -
Iván Fresneda Sporting CP Ativo 128 / 129 40% 1 19.08.2026 -
Josh Keeley Luton Town Ativo 111 / 130 40% 1 01.08.2026 -
Svetoslav Vutsov Levski Ativo 121 / 122 40% 1 01.08.2026 -